createdAt,value
2022-12-25T00:00:50.370Z,64.82
2022-12-25T00:01:50.371Z,64.47
2022-12-25T00:02:50.449Z,64.12
2022-12-25T00:03:50.523Z,64.22
2022-12-25T00:04:50.397Z,64.62
2022-12-25T00:05:50.304Z,64.12
2022-12-25T00:06:50.316Z,64.87
2022-12-25T00:07:50.290Z,64.82
2022-12-25T00:08:50.280Z,64.57
2022-12-25T00:09:50.258Z,64.97
2022-12-25T00:10:50.293Z,64.87
2022-12-25T00:11:50.304Z,64.87
2022-12-25T00:12:50.253Z,64.92
2022-12-25T00:13:50.230Z,64.47
2022-12-25T00:14:50.218Z,64.47
2022-12-25T00:15:50.214Z,64.62
2022-12-25T00:16:50.314Z,64.72
2022-12-25T00:17:50.180Z,64.72
2022-12-25T00:18:50.190Z,64.32
2022-12-25T00:19:50.202Z,64.17
2022-12-25T00:20:50.180Z,64.52
2022-12-25T00:21:50.159Z,64.27
2022-12-25T00:22:50.148Z,64.02
2022-12-25T00:23:50.152Z,63.00
2022-12-25T00:24:50.111Z,62.91
2022-12-25T00:25:50.106Z,63.58
2022-12-25T00:26:50.105Z,63.39
2022-12-25T00:27:50.129Z,63.29
2022-12-25T00:28:50.084Z,63.68
2022-12-25T00:29:50.106Z,63.63
2022-12-25T00:30:50.086Z,63.97
2022-12-25T00:31:50.157Z,63.92
2022-12-25T00:32:50.040Z,64.07
2022-12-25T00:33:50.038Z,64.27
2022-12-25T00:34:50.039Z,64.57
2022-12-25T00:35:50.000Z,64.82
2022-12-25T00:36:50.040Z,64.62
2022-12-25T00:37:50.004Z,64.47
2022-12-25T00:38:49.982Z,64.12
2022-12-25T00:39:49.971Z,64.57
2022-12-25T00:40:49.956Z,64.82
2022-12-25T00:41:49.964Z,65.02
2022-12-25T00:42:49.970Z,64.77
2022-12-25T00:43:49.914Z,65.13
2022-12-25T00:44:49.918Z,65.43
2022-12-25T00:45:50.005Z,66.06
2022-12-25T00:46:49.994Z,66.22
2022-12-25T00:47:49.981Z,66.75
2022-12-25T00:48:49.888Z,66.86
2022-12-25T00:49:49.875Z,67.51
2022-12-25T00:50:49.859Z,67.67
2022-12-25T00:51:49.868Z,67.89
2022-12-25T00:52:49.845Z,68.34
2022-12-25T00:53:49.850Z,68.62
2022-12-25T00:54:49.903Z,68.79
2022-12-25T00:55:49.804Z,69.19
2022-12-25T00:56:49.816Z,69.60
2022-12-25T00:57:49.819Z,70.07
2022-12-25T00:58:49.966Z,70.24
2022-12-25T00:59:49.772Z,70.60
2022-12-25T01:00:49.822Z,70.24
2022-12-25T01:01:50.001Z,70.42
2022-12-25T01:02:49.871Z,70.36
2022-12-25T01:03:49.714Z,70.60
2022-12-25T01:04:49.728Z,70.42
2022-12-25T01:05:49.707Z,70.66
2022-12-25T01:06:49.778Z,70.48
2022-12-25T01:07:49.688Z,70.36
2022-12-25T01:08:49.678Z,70.24
2022-12-25T01:09:49.688Z,70.30
2022-12-25T01:10:49.686Z,70.01
2022-12-25T01:11:49.639Z,70.18
2022-12-25T01:12:49.673Z,70.07
2022-12-25T01:13:49.645Z,70.13
2022-12-25T01:14:49.626Z,70.48
2022-12-25T01:15:49.683Z,70.42
2022-12-25T01:16:49.702Z,70.42
2022-12-25T01:17:49.576Z,69.95
2022-12-25T01:18:49.621Z,70.90
2022-12-25T01:19:49.578Z,71.21
2022-12-25T01:20:49.617Z,70.96
2022-12-25T01:21:49.593Z,70.60
2022-12-25T01:22:49.586Z,70.42
2022-12-25T01:23:49.536Z,70.66
2022-12-25T01:24:49.526Z,70.90
2022-12-25T01:25:49.512Z,70.84
2022-12-25T01:26:49.503Z,70.54
2022-12-25T01:27:49.501Z,70.42
2022-12-25T01:28:49.502Z,70.54
2022-12-25T01:29:49.477Z,70.30
2022-12-25T01:30:49.481Z,70.24
2022-12-25T01:31:49.502Z,70.07
2022-12-25T01:32:49.442Z,69.83
2022-12-25T01:33:49.487Z,70.01
2022-12-25T01:34:55.699Z,69.71
2022-12-25T01:35:49.469Z,69.31
2022-12-25T01:36:49.400Z,69.08
2022-12-25T01:37:49.393Z,68.73
2022-12-25T01:38:49.399Z,68.90
2022-12-25T01:39:49.414Z,68.17
2022-12-25T01:40:49.395Z,68.11
2022-12-25T01:41:49.397Z,68.23
2022-12-25T01:42:49.369Z,67.40
2022-12-25T01:43:49.328Z,67.40
2022-12-25T01:44:49.321Z,67.78
2022-12-25T01:45:49.374Z,68.79
2022-12-25T01:46:49.330Z,68.23
2022-12-25T01:47:49.308Z,68.06
2022-12-25T01:48:49.384Z,68.06
2022-12-25T01:49:49.346Z,68.90
2022-12-25T01:50:49.255Z,69.02
2022-12-25T01:51:49.262Z,69.02
2022-12-25T01:52:49.264Z,68.73
2022-12-25T01:53:49.236Z,68.96
2022-12-25T01:54:49.234Z,69.02
2022-12-25T01:55:49.201Z,69.42
2022-12-25T01:56:49.219Z,69.36
2022-12-25T01:57:49.194Z,69.54
2022-12-25T01:58:49.219Z,69.02
2022-12-25T01:59:49.218Z,68.56
2022-12-25T02:02:07.113Z,68.11
2022-12-25T02:03:07.973Z,68.56
2022-12-25T02:04:07.916Z,68.00
2022-12-25T02:05:07.907Z,67.89
2022-12-25T02:06:07.892Z,67.67
2022-12-25T02:07:07.925Z,67.40
2022-12-25T02:08:07.893Z,67.29
2022-12-25T02:09:07.889Z,67.07
2022-12-25T02:10:07.849Z,67.23
2022-12-25T02:11:07.856Z,66.96
2022-12-25T02:12:07.865Z,66.86
2022-12-25T02:13:07.848Z,66.91
2022-12-25T02:14:07.844Z,67.23
2022-12-25T02:15:07.832Z,67.51
2022-12-25T02:16:07.877Z,68.00
2022-12-25T02:17:07.830Z,68.51
2022-12-25T02:18:07.779Z,68.90
2022-12-25T02:19:07.812Z,68.90
2022-12-25T02:20:07.773Z,69.02
2022-12-25T02:21:07.752Z,69.25
2022-12-25T02:22:07.752Z,69.31
2022-12-25T02:23:07.733Z,69.66
2022-12-25T02:24:07.746Z,69.71
2022-12-25T02:25:07.772Z,70.13
2022-12-25T02:26:07.698Z,70.18
2022-12-25T02:27:07.703Z,70.36
2022-12-25T02:28:07.689Z,70.30
2022-12-25T02:29:07.696Z,70.18
2022-12-25T02:30:07.675Z,70.36
2022-12-25T02:31:07.682Z,70.18
2022-12-25T02:32:07.728Z,70.01
2022-12-25T02:33:07.633Z,70.30
2022-12-25T02:34:07.625Z,70.60
2022-12-25T02:35:07.646Z,70.13
2022-12-25T02:36:07.608Z,70.13
2022-12-25T02:37:07.661Z,69.60
2022-12-25T02:38:07.597Z,69.60
2022-12-25T02:39:07.582Z,69.42
2022-12-25T02:40:07.592Z,69.42
2022-12-25T02:41:07.585Z,69.08
2022-12-25T02:42:07.551Z,68.45
2022-12-25T02:43:07.640Z,68.96
2022-12-25T02:44:07.518Z,68.62
2022-12-25T02:45:07.512Z,68.85
2022-12-25T02:46:07.552Z,69.02
2022-12-25T02:47:07.493Z,68.96
2022-12-25T02:48:07.502Z,69.08
2022-12-25T02:49:07.529Z,69.42
2022-12-25T02:50:07.503Z,68.79
2022-12-25T02:51:07.452Z,68.23
2022-12-25T02:52:07.455Z,68.28
2022-12-25T02:53:07.434Z,68.11
2022-12-25T02:54:07.439Z,68.23
2022-12-25T02:55:07.433Z,68.68
2022-12-25T02:56:07.435Z,68.73
2022-12-25T02:57:07.482Z,68.73
2022-12-25T02:58:07.391Z,68.39
2022-12-25T02:59:07.372Z,68.51
2022-12-25T03:00:07.410Z,68.51
2022-12-25T03:01:07.389Z,68.11
2022-12-25T03:02:07.445Z,67.73
2022-12-25T03:03:07.358Z,67.67
2022-12-25T03:04:07.328Z,67.40
2022-12-25T03:05:07.350Z,67.45
2022-12-25T03:06:07.439Z,67.29
2022-12-25T03:07:07.316Z,66.80
2022-12-25T03:08:07.303Z,66.75
2022-12-25T03:09:07.280Z,66.86
2022-12-25T03:10:07.311Z,66.80
2022-12-25T03:11:07.280Z,66.96
2022-12-25T03:12:07.283Z,66.91
2022-12-25T03:13:07.257Z,67.29
2022-12-25T03:14:07.229Z,67.12
2022-12-25T03:15:07.223Z,67.02
2022-12-25T03:16:07.241Z,66.91
2022-12-25T03:17:07.230Z,67.18
2022-12-25T03:18:07.256Z,67.29
2022-12-25T03:19:07.219Z,67.45
2022-12-25T03:20:07.180Z,67.40
2022-12-25T03:21:07.167Z,68.11
2022-12-25T03:22:07.148Z,68.51
2022-12-25T03:23:07.164Z,68.68
2022-12-25T03:24:07.122Z,69.25
2022-12-25T03:25:07.137Z,69.60
2022-12-25T03:26:07.124Z,70.13
2022-12-25T03:27:07.098Z,70.01
2022-12-25T03:28:07.112Z,70.07
2022-12-25T03:29:07.102Z,69.77
2022-12-25T03:30:07.089Z,69.83
2022-12-25T03:31:07.103Z,69.83
2022-12-25T03:32:07.049Z,69.71
2022-12-25T03:33:17.978Z,69.42
2022-12-25T03:34:07.140Z,69.48
2022-12-25T03:35:07.022Z,68.96
2022-12-25T03:36:07.006Z,69.13
2022-12-25T03:37:07.035Z,68.28
2022-12-25T03:38:06.988Z,68.17
2022-12-25T03:39:07.017Z,67.56
2022-12-25T03:40:07.058Z,67.12
2022-12-25T03:41:06.963Z,67.40
2022-12-25T03:42:06.945Z,66.91
2022-12-25T03:43:06.984Z,66.43
2022-12-25T03:44:06.945Z,66.69
2022-12-25T03:45:06.958Z,66.37
2022-12-25T03:46:06.976Z,66.43
2022-12-25T03:47:06.920Z,66.16
2022-12-25T03:48:06.898Z,65.80
2022-12-25T03:49:06.889Z,65.95
2022-12-25T03:50:06.868Z,66.16
2022-12-25T03:51:06.890Z,65.95
2022-12-25T03:52:06.880Z,66.00
2022-12-25T03:53:06.845Z,65.74
2022-12-25T03:54:06.858Z,65.80
2022-12-25T03:55:06.831Z,65.95
2022-12-25T03:56:06.811Z,66.06
2022-12-25T03:57:06.812Z,65.85
2022-12-25T03:58:06.793Z,66.22
2022-12-25T03:59:06.801Z,66.37
2022-12-25T04:00:06.767Z,66.32
2022-12-25T04:01:06.805Z,66.86
2022-12-25T04:02:06.884Z,66.64
2022-12-25T04:03:06.803Z,67.12
2022-12-25T04:04:06.750Z,66.91
2022-12-25T04:05:06.747Z,67.12
2022-12-25T04:06:06.728Z,67.02
2022-12-25T04:07:06.748Z,66.75
2022-12-25T04:08:06.694Z,66.37
2022-12-25T04:09:06.690Z,66.16
2022-12-25T04:10:06.679Z,65.80
2022-12-25T04:11:06.677Z,65.54
2022-12-25T04:12:06.668Z,65.02
2022-12-25T04:13:06.682Z,65.07
2022-12-25T04:14:06.630Z,64.72
2022-12-25T04:15:06.633Z,64.87
2022-12-25T04:16:06.812Z,65.18
2022-12-25T04:17:06.614Z,64.62
2022-12-25T04:18:06.587Z,65.02
2022-12-25T04:19:06.609Z,64.12
2022-12-25T04:20:06.596Z,64.22
2022-12-25T04:21:06.580Z,63.53
2022-12-25T04:22:06.561Z,63.49
2022-12-25T04:23:06.554Z,63.24
2022-12-25T04:24:06.556Z,63.39
2022-12-25T04:25:06.554Z,63.39
2022-12-25T04:26:06.524Z,63.19
2022-12-25T04:27:06.514Z,62.53
2022-12-25T04:28:06.501Z,62.34
2022-12-25T04:29:06.507Z,62.58
2022-12-25T04:30:06.493Z,62.29
2022-12-25T04:31:06.535Z,62.39
2022-12-25T04:32:06.505Z,62.20
2022-12-25T04:33:06.486Z,61.47
2022-12-25T04:34:06.434Z,61.33
2022-12-25T04:35:06.473Z,61.19
2022-12-25T04:36:06.438Z,61.79
2022-12-25T04:37:06.411Z,61.28
2022-12-25T04:38:06.427Z,61.65
2022-12-25T04:39:06.397Z,61.47
2022-12-25T04:40:06.380Z,61.69
2022-12-25T04:41:06.382Z,61.24
2022-12-25T04:42:06.371Z,61.06
2022-12-25T04:43:06.343Z,61.10
2022-12-25T04:44:06.336Z,61.06
2022-12-25T04:45:06.380Z,60.66
2022-12-25T04:46:06.419Z,60.53
2022-12-25T04:47:11.167Z,60.31
2022-12-25T04:48:06.334Z,60.13
2022-12-25T04:49:06.292Z,60.09
2022-12-25T04:50:06.406Z,60.26
2022-12-25T04:51:06.307Z,60.26
2022-12-25T04:52:06.258Z,60.09
2022-12-25T04:53:06.254Z,59.70
2022-12-25T04:54:06.280Z,59.70
2022-12-25T04:55:06.228Z,59.66
2022-12-25T04:56:06.238Z,59.79
2022-12-25T04:57:06.253Z,59.92
2022-12-25T04:58:06.212Z,60.26
2022-12-25T04:59:06.221Z,60.22
2022-12-25T05:00:06.211Z,60.18
2022-12-25T05:01:06.179Z,59.62
2022-12-25T05:02:06.249Z,59.40
2022-12-25T05:03:06.327Z,59.70
2022-12-25T05:04:06.176Z,59.74
2022-12-25T05:05:06.172Z,60.22
2022-12-25T05:06:06.245Z,59.92
2022-12-25T05:07:06.120Z,59.83
2022-12-25T05:08:06.103Z,59.66
2022-12-25T05:09:06.116Z,59.62
2022-12-25T05:10:06.089Z,60.13
2022-12-25T05:11:06.077Z,59.62
2022-12-25T05:12:06.086Z,59.92
2022-12-25T05:13:06.048Z,59.74
2022-12-25T05:14:06.077Z,59.87
2022-12-25T05:15:06.035Z,59.66
2022-12-25T05:16:06.100Z,59.62
2022-12-25T05:17:06.038Z,59.66
2022-12-25T05:18:06.025Z,59.15
2022-12-25T05:19:05.988Z,59.02
2022-12-25T05:20:05.995Z,59.19
2022-12-25T05:21:05.994Z,58.90
2022-12-25T05:22:05.964Z,58.40
2022-12-25T05:23:05.950Z,58.73
2022-12-25T05:24:05.979Z,58.28
2022-12-25T05:25:05.933Z,58.81
2022-12-25T05:26:05.950Z,58.77
2022-12-25T05:27:05.939Z,58.81
2022-12-25T05:28:05.945Z,58.85
2022-12-25T05:29:05.909Z,58.73
2022-12-25T05:30:05.884Z,58.28
2022-12-25T05:31:05.940Z,58.20
2022-12-25T05:32:05.892Z,57.95
2022-12-25T05:33:05.922Z,58.36
2022-12-25T05:34:05.862Z,58.40
2022-12-25T05:35:05.856Z,58.32
2022-12-25T05:36:05.824Z,57.99
2022-12-25T05:37:05.845Z,57.87
2022-12-25T05:38:05.816Z,57.95
2022-12-25T05:39:05.808Z,58.07
2022-12-25T05:40:05.789Z,57.63
2022-12-25T05:41:05.811Z,57.67
2022-12-25T05:42:05.768Z,57.63
2022-12-25T05:43:05.777Z,57.35
2022-12-25T05:44:05.748Z,57.43
2022-12-25T05:45:05.747Z,57.08
2022-12-25T05:46:05.771Z,56.92
2022-12-25T05:47:05.781Z,56.88
2022-12-25T05:48:05.730Z,56.57
2022-12-25T05:49:05.749Z,56.08
2022-12-25T05:50:05.745Z,55.70
2022-12-25T05:51:05.678Z,55.51
2022-12-25T05:52:05.686Z,55.04
2022-12-25T05:53:08.401Z,54.82
2022-12-25T05:54:05.663Z,54.82
2022-12-25T05:55:05.675Z,54.10
2022-12-25T05:56:05.652Z,53.96
2022-12-25T05:57:05.618Z,53.86
2022-12-25T05:58:05.625Z,53.69
2022-12-25T05:59:05.621Z,53.51
2022-12-25T06:00:05.753Z,53.55
2022-12-25T06:01:05.582Z,53.34
2022-12-25T06:02:05.677Z,53.27
2022-12-25T06:03:05.648Z,53.34
2022-12-25T06:04:10.322Z,53.38
2022-12-25T06:05:05.561Z,53.27
2022-12-25T06:06:05.547Z,53.58
2022-12-25T06:07:05.556Z,53.62
2022-12-25T06:08:05.502Z,53.96
2022-12-25T06:09:05.517Z,54.21
2022-12-25T06:10:05.515Z,54.42
2022-12-25T06:11:05.549Z,54.60
2022-12-25T06:12:05.495Z,54.57
2022-12-25T06:13:05.462Z,54.35
2022-12-25T06:14:05.473Z,54.49
2022-12-25T06:15:05.483Z,54.67
2022-12-25T06:16:05.629Z,54.49
2022-12-25T06:17:05.510Z,54.60
2022-12-25T06:18:05.411Z,54.93
2022-12-25T06:19:05.434Z,54.82
2022-12-25T06:20:05.395Z,54.64
2022-12-25T06:21:05.399Z,54.28
2022-12-25T06:22:05.401Z,54.10
2022-12-25T06:23:05.373Z,53.96
2022-12-25T06:24:05.417Z,54.14
2022-12-25T06:25:05.364Z,54.21
2022-12-25T06:26:05.328Z,54.53
2022-12-25T06:27:05.348Z,54.57
2022-12-25T06:28:05.379Z,54.85
2022-12-25T06:29:05.321Z,55.07
2022-12-25T06:30:05.295Z,55.26
2022-12-25T06:31:05.330Z,55.40
2022-12-25T06:32:05.338Z,55.40
2022-12-25T06:33:05.259Z,55.37
2022-12-25T06:34:05.277Z,55.40
2022-12-25T06:35:05.269Z,55.11
2022-12-25T06:36:05.193Z,54.82
2022-12-25T06:37:05.171Z,54.67
2022-12-25T06:38:05.244Z,54.46
2022-12-25T06:39:05.193Z,54.39
2022-12-25T06:40:05.177Z,53.89
2022-12-25T06:41:05.147Z,53.82
2022-12-25T06:42:05.173Z,53.51
2022-12-25T06:43:05.147Z,53.62
2022-12-25T06:44:05.152Z,53.72
2022-12-25T06:45:05.099Z,53.86
2022-12-25T06:46:05.228Z,54.00
2022-12-25T06:47:05.073Z,53.89
2022-12-25T06:48:05.068Z,54.10
2022-12-25T06:49:05.076Z,53.62
2022-12-25T06:50:05.045Z,53.82
2022-12-25T06:51:05.027Z,53.72
2022-12-25T06:52:05.071Z,53.82
2022-12-25T06:53:05.022Z,54.10
2022-12-25T06:54:05.005Z,54.07
2022-12-25T06:55:05.008Z,53.96
2022-12-25T06:56:04.979Z,54.46
2022-12-25T06:57:05.008Z,54.67
2022-12-25T06:58:04.965Z,54.78
2022-12-25T06:59:04.998Z,55.18
2022-12-25T07:00:04.939Z,55.48
2022-12-25T07:01:04.949Z,55.74
2022-12-25T07:02:05.040Z,56.08
2022-12-25T07:03:05.028Z,56.08
2022-12-25T07:04:04.906Z,56.49
2022-12-25T07:05:04.908Z,57.04
2022-12-25T07:06:04.932Z,57.08
2022-12-25T07:07:08.987Z,57.91
2022-12-25T07:08:04.897Z,57.99
2022-12-25T07:09:04.847Z,58.52
2022-12-25T07:10:04.843Z,58.56
2022-12-25T07:11:04.843Z,58.48
2022-12-25T07:12:04.839Z,58.94
2022-12-25T07:13:04.818Z,58.61
2022-12-25T07:14:04.820Z,59.40
2022-12-25T07:15:04.823Z,59.40
2022-12-25T07:16:04.869Z,59.70
2022-12-25T07:17:04.783Z,59.83
2022-12-25T07:18:04.796Z,59.96
2022-12-25T07:19:04.751Z,60.53
2022-12-25T07:20:04.798Z,60.13
2022-12-25T07:21:04.771Z,59.66
2022-12-25T07:22:04.719Z,59.79
2022-12-25T07:23:04.729Z,59.11
2022-12-25T07:24:05.673Z,58.61
2022-12-25T07:25:04.699Z,58.36
2022-12-25T07:26:04.703Z,58.15
2022-12-25T07:27:04.674Z,58.11
2022-12-25T07:28:04.670Z,57.63
2022-12-25T07:29:04.677Z,57.35
2022-12-25T07:30:04.668Z,57.59
2022-12-25T07:31:04.646Z,57.12
2022-12-25T07:32:04.704Z,56.76
2022-12-25T07:33:04.626Z,56.15
2022-12-25T07:34:04.621Z,56.23
2022-12-25T07:35:04.639Z,55.96
2022-12-25T07:36:04.583Z,55.51
2022-12-25T07:37:04.653Z,55.33
2022-12-25T07:38:04.576Z,55.22
2022-12-25T07:39:04.561Z,55.22
2022-12-25T07:40:04.633Z,54.96
2022-12-25T07:41:04.551Z,54.60
2022-12-25T07:42:04.544Z,54.42
2022-12-25T07:43:04.532Z,54.07
2022-12-25T07:44:04.515Z,54.07
2022-12-25T07:45:04.552Z,53.79
2022-12-25T07:46:04.559Z,53.76
2022-12-25T07:47:04.494Z,53.20
2022-12-25T07:48:05.824Z,53.00
2022-12-25T07:49:04.463Z,52.33
2022-12-25T07:50:04.486Z,52.17
2022-12-25T07:51:04.475Z,52.07
2022-12-25T07:52:04.439Z,51.97
2022-12-25T07:53:04.429Z,51.81
2022-12-25T07:54:04.432Z,51.81
2022-12-25T07:55:04.397Z,51.30
2022-12-25T07:56:04.396Z,50.86
2022-12-25T07:57:04.425Z,50.25
2022-12-25T07:58:04.385Z,49.94
2022-12-25T07:59:04.360Z,49.53
2022-12-25T08:00:04.357Z,49.15
2022-12-25T08:01:04.517Z,48.80
2022-12-25T08:02:04.613Z,48.60
2022-12-25T08:03:04.691Z,48.74
2022-12-25T08:04:04.351Z,49.26
2022-12-25T08:05:04.317Z,49.29
2022-12-25T08:06:04.310Z,49.38
2022-12-25T08:07:04.312Z,49.44
2022-12-25T08:08:04.281Z,48.86
2022-12-25T08:09:04.283Z,48.89
2022-12-25T08:10:04.277Z,48.32
2022-12-25T08:11:04.248Z,47.74
2022-12-25T08:12:04.245Z,47.22
2022-12-25T08:13:09.001Z,47.09
2022-12-25T08:14:04.236Z,47.01
2022-12-25T08:15:04.220Z,46.80
2022-12-25T08:16:04.205Z,46.69
2022-12-25T08:17:04.455Z,46.69
2022-12-25T08:18:04.177Z,46.69
2022-12-25T08:19:04.194Z,46.49
2022-12-25T08:20:04.166Z,46.59
2022-12-25T08:21:04.145Z,46.43
2022-12-25T08:22:04.205Z,46.02
2022-12-25T08:23:04.115Z,45.77
2022-12-25T08:24:04.119Z,45.17
2022-12-25T08:25:04.117Z,45.07
2022-12-25T08:26:05.565Z,44.98
2022-12-25T08:27:04.105Z,44.59
2022-12-25T08:28:04.071Z,44.26
2022-12-25T08:29:04.073Z,44.07
2022-12-25T08:30:04.050Z,43.98
2022-12-25T08:31:04.176Z,43.70
2022-12-25T08:32:04.164Z,43.79
2022-12-25T08:33:04.098Z,43.93
2022-12-25T08:34:04.040Z,43.38
2022-12-25T08:35:04.027Z,43.56
2022-12-25T08:36:03.999Z,43.43
2022-12-25T08:37:03.982Z,43.07
2022-12-25T08:38:04.056Z,42.71
2022-12-25T08:39:04.343Z,42.50
2022-12-25T08:40:03.972Z,42.28
2022-12-25T08:41:03.945Z,42.11
2022-12-25T08:42:03.929Z,41.98
2022-12-25T08:43:03.937Z,41.85
2022-12-25T08:44:03.961Z,41.85
2022-12-25T08:45:03.923Z,41.65
2022-12-25T08:46:03.963Z,41.73
2022-12-25T08:47:03.883Z,41.48
2022-12-25T08:48:03.870Z,41.31
2022-12-25T08:49:03.879Z,41.35
2022-12-25T08:50:03.893Z,41.03
2022-12-25T08:51:03.841Z,40.67
2022-12-25T08:52:03.845Z,40.79
2022-12-25T08:53:03.831Z,40.95
2022-12-25T08:54:03.814Z,41.23
2022-12-25T08:55:03.813Z,41.19
2022-12-25T08:56:03.802Z,41.23
2022-12-25T08:57:03.801Z,41.11
2022-12-25T08:58:03.777Z,41.44
2022-12-25T08:59:03.772Z,42.15
2022-12-25T09:00:04.001Z,42.67
2022-12-25T09:01:03.763Z,43.25
2022-12-25T09:02:03.906Z,43.93
2022-12-25T09:03:03.827Z,45.17
2022-12-25T09:04:03.718Z,45.82
2022-12-25T09:05:03.715Z,46.43
2022-12-25T09:06:03.721Z,47.14
2022-12-25T09:07:03.731Z,48.54
2022-12-25T09:08:03.680Z,49.76
2022-12-25T09:09:03.685Z,50.31
2022-12-25T09:10:03.662Z,51.46
2022-12-25T09:11:03.646Z,51.65
2022-12-25T09:12:03.636Z,51.91
2022-12-25T09:13:03.663Z,52.07
2022-12-25T09:14:03.700Z,52.50
2022-12-25T09:15:03.626Z,53.10
2022-12-25T09:16:03.620Z,52.80
2022-12-25T09:17:03.604Z,52.76
2022-12-25T09:18:03.594Z,52.93
2022-12-25T09:19:03.584Z,53.00
2022-12-25T09:20:03.555Z,53.31
2022-12-25T09:21:03.573Z,53.55
2022-12-25T09:22:03.540Z,54.21
2022-12-25T09:23:07.246Z,54.42
2022-12-25T09:24:03.538Z,55.04
2022-12-25T09:25:03.527Z,55.85
2022-12-25T09:26:03.504Z,55.89
2022-12-25T09:27:03.500Z,56.69
2022-12-25T09:28:03.502Z,56.84
2022-12-25T09:29:03.483Z,57.55
2022-12-25T09:30:03.448Z,57.63
2022-12-25T09:31:03.522Z,57.43
2022-12-25T09:32:03.433Z,57.47
2022-12-25T09:33:03.464Z,57.59
2022-12-25T09:34:03.436Z,57.67
2022-12-25T09:35:03.434Z,58.65
2022-12-25T09:36:03.397Z,58.61
2022-12-25T09:37:03.409Z,60.48
2022-12-25T09:38:03.416Z,60.53
2022-12-25T09:39:03.391Z,58.90
2022-12-25T09:40:03.400Z,57.55
2022-12-25T09:41:03.345Z,56.15
2022-12-25T09:42:03.336Z,54.89
2022-12-25T09:43:03.342Z,53.86
2022-12-25T09:44:03.424Z,53.89
2022-12-25T09:45:03.325Z,53.51
2022-12-25T09:46:03.457Z,53.62
2022-12-25T09:47:03.328Z,53.48
2022-12-25T09:48:03.296Z,53.76
2022-12-25T09:49:03.273Z,54.53
2022-12-25T09:50:03.278Z,54.28
2022-12-25T09:51:03.263Z,54.25
2022-12-25T09:52:03.285Z,53.89
2022-12-25T09:53:03.240Z,53.34
2022-12-25T09:54:03.223Z,53.07
2022-12-25T09:55:03.237Z,52.53
2022-12-25T09:56:03.209Z,52.73
2022-12-25T09:57:03.227Z,52.50
2022-12-25T09:58:03.179Z,51.52
2022-12-25T09:59:03.196Z,50.99
2022-12-25T10:00:03.153Z,51.36
2022-12-25T10:01:03.163Z,51.46
2022-12-25T10:02:03.215Z,51.33
2022-12-25T10:03:03.362Z,50.80
2022-12-25T10:04:03.173Z,50.40
2022-12-25T10:05:03.127Z,49.79
2022-12-25T10:06:03.101Z,49.53
2022-12-25T10:07:03.097Z,48.69
2022-12-25T10:08:03.110Z,47.85
2022-12-25T10:09:03.084Z,47.30
2022-12-25T10:10:03.078Z,46.69
2022-12-25T10:11:03.063Z,45.92
2022-12-25T10:12:03.040Z,45.82
2022-12-25T10:13:03.036Z,45.37
2022-12-25T10:14:03.075Z,45.57
2022-12-25T10:15:03.058Z,45.67
2022-12-25T10:16:03.047Z,45.92
2022-12-25T10:17:03.020Z,45.92
2022-12-25T10:18:02.984Z,45.62
2022-12-25T10:19:02.973Z,46.54
2022-12-25T10:20:03.003Z,47.76
2022-12-25T10:21:05.703Z,48.97
2022-12-25T10:22:02.956Z,49.59
2022-12-25T10:23:02.988Z,50.12
2022-12-25T10:24:02.955Z,50.80
2022-12-25T10:25:02.922Z,51.97
2022-12-25T10:26:02.896Z,53.58
2022-12-25T10:27:02.921Z,56.04
2022-12-25T10:28:02.897Z,60.62
2022-12-25T10:29:02.905Z,64.77
2022-12-25T10:30:02.857Z,68.06
2022-12-25T10:31:02.958Z,75.27
2022-12-25T10:32:02.852Z,81.47
2022-12-25T10:33:02.872Z,85.40
2022-12-25T10:34:02.884Z,90.32
2022-12-25T10:35:02.841Z,94.30
2022-12-25T10:36:02.794Z,101.12
2022-12-25T10:37:02.849Z,111.35
2022-12-25T10:38:02.804Z,116.34
2022-12-25T10:39:02.794Z,123.42
2022-12-25T10:40:02.773Z,126.43
2022-12-25T10:41:02.780Z,126.81
2022-12-25T10:42:02.738Z,132.68
2022-12-25T10:43:02.737Z,137.74
2022-12-25T10:44:02.739Z,142.34
2022-12-25T10:45:02.749Z,147.25
2022-12-25T10:46:02.796Z,149.91
2022-12-25T10:47:02.713Z,149.10
2022-12-25T10:48:07.069Z,151.83
2022-12-25T10:49:02.679Z,151.14
2022-12-25T10:50:02.675Z,155.08
2022-12-25T10:51:02.652Z,154.65
2022-12-25T10:52:02.673Z,155.37
2022-12-25T10:53:02.661Z,153.65
2022-12-25T10:54:02.642Z,159.24
2022-12-25T10:55:02.663Z,164.93
2022-12-25T10:56:02.647Z,168.61
2022-12-25T10:57:02.672Z,167.42
2022-12-25T10:58:02.591Z,171.57
2022-12-25T10:59:02.604Z,175.37
2022-12-25T11:00:02.565Z,172.10
2022-12-25T11:01:02.561Z,166.42
2022-12-25T11:02:02.626Z,162.99
2022-12-25T11:03:02.796Z,163.15
2022-12-25T11:04:02.614Z,167.93
2022-12-25T11:05:02.590Z,168.95
2022-12-25T11:06:02.501Z,172.82
2022-12-25T11:07:02.506Z,175.55
2022-12-25T11:08:02.487Z,178.96
2022-12-25T11:09:02.495Z,178.96
2022-12-25T11:10:05.637Z,184.72
2022-12-25T11:11:02.511Z,186.59
2022-12-25T11:12:02.447Z,181.30
2022-12-25T11:13:02.591Z,177.05
2022-12-25T11:14:02.440Z,175.74
2022-12-25T11:15:02.404Z,180.12
2022-12-25T11:16:02.452Z,179.73
2022-12-25T11:17:02.417Z,184.11
2022-12-25T11:18:02.465Z,194.49
2022-12-25T11:19:02.374Z,195.42
2022-12-25T11:20:02.399Z,201.32
2022-12-25T11:21:02.353Z,198.27
2022-12-25T11:22:02.346Z,199.60
2022-12-25T11:23:02.382Z,198.99
2022-12-25T11:24:02.339Z,198.39
2022-12-25T11:25:02.323Z,198.39
2022-12-25T11:26:02.355Z,197.91
2022-12-25T11:27:02.320Z,199.24
2022-12-25T11:28:02.304Z,199.11
2022-12-25T11:29:02.349Z,201.57
2022-12-25T11:30:02.313Z,197.43
2022-12-25T11:31:02.331Z,193.92
2022-12-25T11:32:02.237Z,189.53
2022-12-25T11:33:02.246Z,186.17
2022-12-25T11:34:02.223Z,178.96
2022-12-25T11:35:02.261Z,178.57
2022-12-25T11:36:02.201Z,186.29
2022-12-25T11:37:02.195Z,195.54
2022-12-25T11:38:02.200Z,200.58
2022-12-25T11:39:02.176Z,197.07
2022-12-25T11:40:02.187Z,198.27
2022-12-25T11:41:02.165Z,198.99
2022-12-25T11:42:02.172Z,210.66
2022-12-25T11:43:07.650Z,216.38
2022-12-25T11:44:02.138Z,236.58
2022-12-25T11:45:02.120Z,246.58
2022-12-25T11:46:02.114Z,248.83
2022-12-25T11:47:02.225Z,242.91
2022-12-25T11:48:02.089Z,244.00
2022-12-25T11:49:02.099Z,242.37
2022-12-25T11:50:02.073Z,225.95
2022-12-25T11:51:02.080Z,204.21
2022-12-25T11:52:02.054Z,193.92
2022-12-25T11:53:02.045Z,178.19
2022-12-25T11:54:02.034Z,167.25
2022-12-25T11:55:02.026Z,161.41
2022-12-25T11:56:02.031Z,164.44
2022-12-25T11:57:01.988Z,167.25
2022-12-25T11:58:02.013Z,173.54
2022-12-25T11:59:02.060Z,179.92
2022-12-25T12:00:01.977Z,173.36
2022-12-25T12:01:01.947Z,173.54
2022-12-25T12:02:02.092Z,183.50
2022-12-25T12:03:02.079Z,188.22
2022-12-25T12:04:02.036Z,192.21
2022-12-25T12:05:01.968Z,200.09
2022-12-25T12:06:01.888Z,213.41
2022-12-25T12:07:01.880Z,221.21
2022-12-25T12:08:01.895Z,221.06
2022-12-25T12:09:01.859Z,227.68
2022-12-25T12:10:01.892Z,247.70
2022-12-25T12:11:01.931Z,269.55
2022-12-25T12:12:01.869Z,286.57
2022-12-25T12:13:01.852Z,287.83
2022-12-25T12:14:01.832Z,315.31
2022-12-25T12:15:01.827Z,309.93
2022-12-25T12:16:01.897Z,324.71
2022-12-25T12:17:01.792Z,359.33
2022-12-25T12:18:01.798Z,376.73
2022-12-25T12:19:01.765Z,407.32
2022-12-25T12:20:01.761Z,429.71
2022-12-25T12:21:01.825Z,430.55
2022-12-25T12:22:01.748Z,418.08
2022-12-25T12:23:01.740Z,389.18
2022-12-25T12:24:01.714Z,396.38
2022-12-25T12:25:02.342Z,413.14
2022-12-25T12:26:01.870Z,433.64
2022-12-25T12:27:01.727Z,451.93
2022-12-25T12:28:05.575Z,454.09
2022-12-25T12:29:01.697Z,451.01
2022-12-25T12:30:01.696Z,445.86
2022-12-25T12:31:01.652Z,445.27
2022-12-25T12:32:01.693Z,463.60
2022-12-25T12:33:01.632Z,468.83
2022-12-25T12:34:02.336Z,473.85
2022-12-25T12:35:01.622Z,476.57
2022-12-25T12:36:01.617Z,481.40
2022-12-25T12:37:01.604Z,483.15
2022-12-25T12:38:01.567Z,499.88
2022-12-25T12:39:01.572Z,519.42
2022-12-25T12:40:01.569Z,530.62
2022-12-25T12:41:01.547Z,544.09
2022-12-25T12:42:01.554Z,563.47
2022-12-25T12:43:01.526Z,571.22
2022-12-25T12:44:01.518Z,591.57
2022-12-25T12:45:01.522Z,605.59
2022-12-25T12:46:01.585Z,612.29
2022-12-25T12:47:01.481Z,606.70
2022-12-25T12:48:01.469Z,578.69
2022-12-25T12:49:01.460Z,543.65
2022-12-25T12:50:01.455Z,526.83